Terminal Aerodrome Forecast
Issued by NWS Burlington, VT

Current Version | Previous Version | Text Only | Print | Product List | Glossary On
Versions: 1 2 3 4 5 6 7 8 9 10 11 12 13 14 15 16 17 18
753 FTUS41 KBTV 091732 TAFBTV TAF KBTV 091732Z 0918/1018 31015G20KT P6SM VCSH OVC045 FM100400 33009KT P6SM BKN045 FM101200 VRB03KT P6SM BKN045 FM101400 31005KT P6SM BKN080=

USA.gov is the U.S. government's official web portal to all federal, state and local government web resources and services.